Kildonan, Canada
Current Conditions -  °F | °C
As of 9:17 AM on Sunday 23 Nov 2014 (Local Time) from CYAZ Reporting Station
Scattered Clouds Scattered Clouds  
Wind Chill: 42°   Ceiling: Unl
Heat Index: 45°   Visibility: 12mi
Dew Point: 41°   Wind: 5mph
Humidity: 87%   Direction: 290°WNW
Pressure: 30.05"   Gusts: NA
Location:  49.02°N, 125°W
Report Text: CYAZ 231717Z 29004KT 280V010 12SM FEW015 SCT025CB 07/05 A3005 RMK CF1CB2 CB ALQDS SLP175
Loading
Personal Weather Stations






























Interactive Weather Map New forecast layout! Learn more

10-Day Weather Forecast

Advertisements
Track Severe Weather on mobile